Time;durP1;ratioP1;P1;durP2;ratioP2;P2;SDS_P1;SDS_P2;PMS_P1;PMS_P2;Temp;Humidity;BMP_temperature;BMP_pressure;BME280_temperature;BME280_humidity;BME280_pressure;Samples;Min_cycle;Max_cycle;Signal;HPM_P1;HPM_P2
2021/10/14 00:02:17;;;;;;;37.40;21.13;;;;;;;;;;5057971;28;20037;-50
2021/10/14 00:04:43;;;;;;;25.70;15.60;;;;;;;;;;5058077;28;20055;-51
2021/10/14 00:07:09;;;;;;;24.00;11.70;;;;;;;;;;5058174;28;20028;-49
2021/10/14 00:09:35;;;;;;;40.63;21.83;;;;;;;;;;5058125;28;20039;-53
2021/10/14 00:12:01;;;;;;;43.75;22.98;;;;;;;;;;5058095;28;20073;-49
2021/10/14 00:14:28;;;;;;;39.85;22.25;;;;;;;;;;5058055;28;20032;-52
2021/10/14 00:16:54;;;;;;;55.65;30.17;;;;;;;;;;5057857;28;20025;-46
2021/10/14 00:19:20;;;;;;;29.80;14.80;;;;;;;;;;5055426;28;20051;-51
2021/10/14 00:21:51;;;;;;;20.27;10.77;;;;;;;;;;5057848;28;20021;-50
2021/10/14 00:24:19;;;;;;;19.23;10.48;;;;;;;;;;5057809;28;20052;-47
2021/10/14 00:26:45;;;;;;;28.98;16.40;;;;;;;;;;5059451;28;20373;-51
2021/10/14 00:29:11;;;;;;;35.70;19.75;;;;;;;;;;5059296;28;20052;-48
2021/10/14 00:31:37;;;;;;;46.30;24.60;;;;;;;;;;5059231;28;20473;-48
2021/10/14 00:34:04;;;;;;;41.38;21.75;;;;;;;;;;5059334;28;20031;-47
2021/10/14 00:36:31;;;;;;;40.42;20.75;;;;;;;;;;5058973;28;20452;-45
2021/10/14 00:38:57;;;;;;;42.40;23.60;;;;;;;;;;5057572;28;20024;-44
2021/10/14 00:41:23;;;;;;;37.47;20.33;;;;;;;;;;5057816;28;20052;-43
2021/10/14 00:43:49;;;;;;;65.75;38.05;;;;;;;;;;5055274;28;20472;-50
2021/10/14 00:46:16;;;;;;;22.52;12.65;;;;;;;;;;5054671;28;20017;-44
2021/10/14 00:48:42;;;;;;;23.92;12.57;;;;;;;;;;5054601;28;20428;-46
2021/10/14 00:51:09;;;;;;;32.03;18.10;;;;;;;;;;5053840;28;20017;-52
2021/10/14 00:53:38;;;;;;;29.63;14.50;;;;;;;;;;5052605;28;20029;-47
2021/10/14 00:56:07;;;;;;;46.03;24.17;;;;;;;;;;5053555;28;20021;-44
2021/10/14 00:58:34;;;;;;;40.10;20.95;;;;;;;;;;5053686;28;20086;-45
2021/10/14 01:01:01;;;;;;;25.70;14.93;;;;;;;;;;5053762;28;20468;-45
2021/10/14 01:03:30;;;;;;;26.92;15.43;;;;;;;;;;5052347;28;20053;-47
2021/10/14 01:05:56;;;;;;;24.65;12.75;;;;;;;;;;5053562;28;20039;-46
2021/10/14 01:08:23;;;;;;;19.00;10.95;;;;;;;;;;5054066;28;20053;-49
2021/10/14 01:10:49;;;;;;;16.20;9.43;;;;;;;;;;5054078;28;20029;-47
2021/10/14 01:13:16;;;;;;;16.17;9.02;;;;;;;;;;5054103;28;20013;-48
2021/10/14 01:15:44;;;;;;;25.13;14.80;;;;;;;;;;5054067;28;20103;-43
2021/10/14 01:18:11;;;;;;;10.23;6.93;;;;;;;;;;5053861;28;20067;-52
2021/10/14 01:20:37;;;;;;;26.52;14.30;;;;;;;;;;5054075;28;20093;-51
2021/10/14 01:23:03;;;;;;;28.13;16.00;;;;;;;;;;5053791;28;20037;-52
2021/10/14 01:25:30;;;;;;;19.60;11.77;;;;;;;;;;5053766;28;20053;-51
2021/10/14 01:27:56;;;;;;;26.65;17.60;;;;;;;;;;5053911;28;20104;-44
2021/10/14 01:30:25;;;;;;;15.75;8.88;;;;;;;;;;5053732;28;20074;-44
2021/10/14 01:32:51;;;;;;;14.25;9.23;;;;;;;;;;5053559;28;20158;-54
2021/10/14 01:35:18;;;;;;;12.80;8.30;;;;;;;;;;5053619;28;20029;-44
2021/10/14 01:37:45;;;;;;;17.23;10.35;;;;;;;;;;5053682;28;20029;-50
2021/10/14 01:40:11;;;;;;;12.75;7.22;;;;;;;;;;5054168;28;20029;-45
2021/10/14 01:42:38;;;;;;;10.73;6.28;;;;;;;;;;5054866;28;20068;-45
2021/10/14 01:45:09;;;;;;;19.23;9.80;;;;;;;;;;5054836;28;20017;-53
2021/10/14 01:47:35;;;;;;;17.77;11.07;;;;;;;;;;5054995;28;20618;-53
2021/10/14 01:50:01;;;;;;;18.38;8.13;;;;;;;;;;5054810;28;20055;-45
2021/10/14 01:52:27;;;;;;;16.10;9.68;;;;;;;;;;5054630;28;20091;-52
2021/10/14 01:54:53;;;;;;;7.38;5.18;;;;;;;;;;5053965;28;20057;-53
2021/10/14 01:57:19;;;;;;;5.53;4.53;;;;;;;;;;5054454;28;20052;-46
2021/10/14 01:59:46;;;;;;;8.73;5.63;;;;;;;;;;5054600;28;20021;-49
2021/10/14 02:02:12;;;;;;;12.65;8.10;;;;;;;;;;5054349;28;20036;-49
2021/10/14 02:04:40;;;;;;;13.18;7.20;;;;;;;;;;5054431;28;20036;-52
2021/10/14 02:07:06;;;;;;;12.48;7.70;;;;;;;;;;5054434;28;20017;-45
2021/10/14 02:09:32;;;;;;;12.32;8.00;;;;;;;;;;5054551;28;20025;-54
2021/10/14 02:11:58;;;;;;;10.45;6.10;;;;;;;;;;5054494;28;20021;-56
2021/10/14 02:14:24;;;;;;;10.13;6.32;;;;;;;;;;5054710;28;20028;-47
2021/10/14 02:16:50;;;;;;;14.65;9.35;;;;;;;;;;5054499;28;20021;-54
2021/10/14 02:19:17;;;;;;;10.65;7.80;;;;;;;;;;5054179;28;20029;-51
2021/10/14 02:21:43;;;;;;;10.07;6.72;;;;;;;;;;5054456;28;20021;-55
2021/10/14 02:24:09;;;;;;;8.68;6.05;;;;;;;;;;5053933;28;20052;-54
2021/10/14 02:26:35;;;;;;;15.95;8.52;;;;;;;;;;5054090;28;20025;-49
2021/10/14 02:29:01;;;;;;;17.33;9.15;;;;;;;;;;5053972;28;20495;-54
2021/10/14 02:31:27;;;;;;;13.23;8.32;;;;;;;;;;5054083;28;20036;-54
2021/10/14 02:33:53;;;;;;;12.90;6.82;;;;;;;;;;5054002;28;20043;-47
2021/10/14 02:36:19;;;;;;;14.07;9.00;;;;;;;;;;5053821;28;20036;-45
2021/10/14 02:38:45;;;;;;;14.20;8.43;;;;;;;;;;5053932;28;20047;-44
2021/10/14 02:41:11;;;;;;;13.70;7.22;;;;;;;;;;5053835;28;20159;-44
2021/10/14 02:43:38;;;;;;;15.75;6.90;;;;;;;;;;5053769;28;20044;-44
2021/10/14 02:46:04;;;;;;;10.77;7.38;;;;;;;;;;5053854;28;20021;-45
2021/10/14 02:48:30;;;;;;;15.23;7.60;;;;;;;;;;5053591;28;20027;-44
2021/10/14 02:50:56;;;;;;;10.85;6.68;;;;;;;;;;5053796;28;20029;-45
2021/10/14 02:53:23;;;;;;;14.15;7.88;;;;;;;;;;5053197;28;20507;-44
2021/10/14 02:55:49;;;;;;;13.35;7.65;;;;;;;;;;5053442;28;20067;-51
2021/10/14 02:58:15;;;;;;;10.90;7.10;;;;;;;;;;5053545;28;20025;-51
2021/10/14 03:00:41;;;;;;;8.55;6.43;;;;;;;;;;5053799;28;20075;-45
2021/10/14 03:03:10;;;;;;;12.60;7.13;;;;;;;;;;5053485;28;20075;-54
2021/10/14 03:05:36;;;;;;;15.02;7.57;;;;;;;;;;5053393;28;20499;-46
2021/10/14 03:08:02;;;;;;;12.98;8.75;;;;;;;;;;5053108;28;20068;-49
2021/10/14 03:10:28;;;;;;;14.50;8.20;;;;;;;;;;5053480;28;20029;-47
2021/10/14 03:12:54;;;;;;;16.70;10.05;;;;;;;;;;5053520;28;20021;-53
2021/10/14 03:15:20;;;;;;;12.57;8.63;;;;;;;;;;5053391;28;20021;-52
2021/10/14 03:17:46;;;;;;;15.52;8.38;;;;;;;;;;5053266;28;20057;-46
2021/10/14 03:20:12;;;;;;;16.98;10.18;;;;;;;;;;5053586;28;20031;-46
2021/10/14 03:22:38;;;;;;;18.35;9.68;;;;;;;;;;5053079;28;20037;-54
2021/10/14 03:25:04;;;;;;;23.45;10.70;;;;;;;;;;5053054;28;20124;-53
2021/10/14 03:27:30;;;;;;;15.55;10.27;;;;;;;;;;5053139;28;20074;-54
2021/10/14 03:29:56;;;;;;;17.58;9.75;;;;;;;;;;5053303;28;20029;-55
2021/10/14 03:32:23;;;;;;;18.90;10.73;;;;;;;;;;5053121;28;20376;-52
2021/10/14 03:34:49;;;;;;;18.35;10.85;;;;;;;;;;5052908;28;20029;-53
2021/10/14 03:37:16;;;;;;;20.63;12.00;;;;;;;;;;5053163;28;20099;-45
2021/10/14 03:39:42;;;;;;;25.20;13.02;;;;;;;;;;5053046;28;20028;-45
2021/10/14 03:42:08;;;;;;;20.55;10.82;;;;;;;;;;5052935;28;20606;-44
2021/10/14 03:44:34;;;;;;;22.45;11.88;;;;;;;;;;5053131;28;20052;-46
2021/10/14 03:47:00;;;;;;;17.17;10.18;;;;;;;;;;5052995;28;20028;-48
2021/10/14 03:49:28;;;;;;;19.23;10.68;;;;;;;;;;5052875;28;20025;-52
2021/10/14 03:51:54;;;;;;;17.30;9.75;;;;;;;;;;5053054;28;20522;-53
2021/10/14 03:54:20;;;;;;;14.98;9.18;;;;;;;;;;5052801;28;20057;-46
2021/10/14 03:56:46;;;;;;;13.90;7.18;;;;;;;;;;5053077;28;20477;-53
2021/10/14 03:59:12;;;;;;;15.73;7.50;;;;;;;;;;5052851;28;20083;-45
2021/10/14 04:01:38;;;;;;;15.45;9.85;;;;;;;;;;5052895;28;20121;-46
2021/10/14 04:04:04;;;;;;;16.92;9.13;;;;;;;;;;5052692;28;20033;-47
2021/10/14 04:06:33;;;;;;;16.70;9.52;;;;;;;;;;5052153;28;20029;-45
2021/10/14 04:08:59;;;;;;;16.95;8.85;;;;;;;;;;5051797;28;20036;-51
2021/10/14 04:11:25;;;;;;;16.70;10.05;;;;;;;;;;5052143;28;20025;-53
2021/10/14 04:13:51;;;;;;;13.30;8.63;;;;;;;;;;5051755;28;20078;-51
2021/10/14 04:16:17;;;;;;;11.63;7.40;;;;;;;;;;5052630;28;20107;-46
2021/10/14 04:18:43;;;;;;;12.23;7.40;;;;;;;;;;5053536;28;20369;-53
2021/10/14 04:21:09;;;;;;;12.05;5.93;;;;;;;;;;5056072;28;20021;-54
2021/10/14 04:23:36;;;;;;;7.13;5.78;;;;;;;;;;5056071;28;20069;-45
2021/10/14 04:26:02;;;;;;;9.50;6.28;;;;;;;;;;5056378;28;20060;-45
2021/10/14 04:28:28;;;;;;;14.27;8.55;;;;;;;;;;5056597;28;20427;-54
2021/10/14 04:30:54;;;;;;;16.40;11.07;;;;;;;;;;5055523;28;20028;-54
2021/10/14 04:33:20;;;;;;;8.98;6.65;;;;;;;;;;5055639;28;20381;-46
2021/10/14 04:35:46;;;;;;;8.50;6.57;;;;;;;;;;5056139;28;20025;-45
2021/10/14 04:38:12;;;;;;;9.13;7.38;;;;;;;;;;5056187;28;20029;-47
2021/10/14 04:40:38;;;;;;;9.70;8.20;;;;;;;;;;5056234;28;20021;-55
2021/10/14 04:43:05;;;;;;;9.18;7.38;;;;;;;;;;5055703;28;20372;-45
2021/10/14 04:45:31;;;;;;;14.95;9.45;;;;;;;;;;5056044;28;20025;-45
2021/10/14 04:47:57;;;;;;;14.82;9.00;;;;;;;;;;5056020;28;20033;-45
2021/10/14 04:50:23;;;;;;;11.35;8.88;;;;;;;;;;5055377;28;20025;-54
2021/10/14 04:52:49;;;;;;;23.23;12.73;;;;;;;;;;5054710;28;20032;-48
2021/10/14 04:55:15;;;;;;;23.27;13.55;;;;;;;;;;5054284;28;20034;-44
2021/10/14 04:57:41;;;;;;;21.50;12.13;;;;;;;;;;5055048;28;20408;-44
2021/10/14 05:00:07;;;;;;;19.83;11.30;;;;;;;;;;5054579;28;20021;-48
2021/10/14 05:02:33;;;;;;;24.23;13.50;;;;;;;;;;5054368;28;20040;-49
2021/10/14 05:04:59;;;;;;;25.58;12.27;;;;;;;;;;5054066;28;20056;-53
2021/10/14 05:07:26;;;;;;;48.00;22.48;;;;;;;;;;5053984;28;20025;-53
2021/10/14 05:09:52;;;;;;;49.58;23.98;;;;;;;;;;5054143;28;20399;-45
2021/10/14 05:12:20;;;;;;;36.30;18.52;;;;;;;;;;5055408;28;20025;-44
2021/10/14 05:14:46;;;;;;;30.92;15.90;;;;;;;;;;5055276;28;20021;-44
2021/10/14 05:17:12;;;;;;;30.30;16.17;;;;;;;;;;5055577;28;20052;-45
2021/10/14 05:19:38;;;;;;;37.88;22.90;;;;;;;;;;5054924;28;20492;-54
2021/10/14 05:22:07;;;;;;;44.78;24.55;;;;;;;;;;5055079;28;20437;-50
2021/10/14 05:24:35;;;;;;;39.63;20.80;;;;;;;;;;5055242;28;20582;-45
2021/10/14 05:27:01;;;;;;;26.65;15.73;;;;;;;;;;5055407;28;20028;-45
2021/10/14 05:29:29;;;;;;;22.63;11.75;;;;;;;;;;5054962;28;20400;-54
2021/10/14 05:31:56;;;;;;;21.60;9.63;;;;;;;;;;5055121;28;20483;-45
2021/10/14 05:34:22;;;;;;;23.40;13.27;;;;;;;;;;5055065;28;20105;-46
2021/10/14 05:36:48;;;;;;;31.95;16.63;;;;;;;;;;5054291;28;20032;-46
2021/10/14 05:39:14;;;;;;;33.00;15.50;;;;;;;;;;5053534;28;20036;-44
2021/10/14 05:41:40;;;;;;;41.72;16.70;;;;;;;;;;5053721;28;20767;-44
2021/10/14 05:44:07;;;;;;;37.75;17.75;;;;;;;;;;5054402;28;20076;-45
2021/10/14 05:46:33;;;;;;;28.27;15.23;;;;;;;;;;5054975;28;20045;-45
2021/10/14 05:49:01;;;;;;;23.55;9.65;;;;;;;;;;5054871;28;20052;-53
2021/10/14 05:51:28;;;;;;;23.80;11.85;;;;;;;;;;5055144;28;20024;-52
2021/10/14 05:53:54;;;;;;;30.70;15.93;;;;;;;;;;5054752;28;20033;-46
2021/10/14 05:56:23;;;;;;;27.67;14.45;;;;;;;;;;5055056;28;20021;-46
2021/10/14 05:58:49;;;;;;;22.60;11.65;;;;;;;;;;5055021;28;20036;-54
2021/10/14 06:01:15;;;;;;;24.30;12.50;;;;;;;;;;5054621;28;20025;-47
2021/10/14 06:03:43;;;;;;;34.10;18.67;;;;;;;;;;5053282;28;20044;-45
2021/10/14 06:06:09;;;;;;;23.20;13.75;;;;;;;;;;5054611;28;20067;-45
2021/10/14 06:08:35;;;;;;;23.20;14.00;;;;;;;;;;5054360;28;20068;-46
2021/10/14 06:11:01;;;;;;;30.90;15.73;;;;;;;;;;5054631;28;20029;-53
2021/10/14 06:13:27;;;;;;;26.83;13.98;;;;;;;;;;5054720;28;20076;-45
2021/10/14 06:15:53;;;;;;;29.05;14.63;;;;;;;;;;5054467;28;20036;-51
2021/10/14 06:18:20;;;;;;;29.58;17.23;;;;;;;;;;5054421;28;20056;-45
2021/10/14 06:20:46;;;;;;;28.33;16.70;;;;;;;;;;5054350;28;20035;-45
2021/10/14 06:23:12;;;;;;;39.55;17.90;;;;;;;;;;5052900;28;20079;-45
2021/10/14 06:25:38;;;;;;;50.00;22.27;;;;;;;;;;5054082;28;20041;-45
2021/10/14 06:28:05;;;;;;;45.17;21.42;;;;;;;;;;5054265;28;20025;-45
2021/10/14 06:30:32;;;;;;;46.40;23.15;;;;;;;;;;5054043;28;20032;-45
2021/10/14 06:32:59;;;;;;;45.15;20.83;;;;;;;;;;5054026;28;20028;-45
2021/10/14 06:35:25;;;;;;;37.47;19.15;;;;;;;;;;5052692;28;20499;-46
2021/10/14 06:37:51;;;;;;;40.80;20.95;;;;;;;;;;5054011;28;20116;-44
2021/10/14 06:40:18;;;;;;;44.15;22.27;;;;;;;;;;5053807;28;20017;-44
2021/10/14 06:42:44;;;;;;;45.50;22.45;;;;;;;;;;5053226;28;20075;-45
2021/10/14 06:45:10;;;;;;;35.20;20.33;;;;;;;;;;5053937;28;20071;-46
2021/10/14 06:47:41;;;;;;;36.22;18.95;;;;;;;;;;5053862;28;20028;-45
2021/10/14 06:50:07;;;;;;;38.40;19.08;;;;;;;;;;5053765;28;20032;-52
2021/10/14 06:52:33;;;;;;;32.15;17.90;;;;;;;;;;5053831;28;20035;-45
2021/10/14 06:54:59;;;;;;;40.60;22.40;;;;;;;;;;5053707;28;20029;-45
2021/10/14 06:57:25;;;;;;;45.25;23.85;;;;;;;;;;5053632;28;20025;-44
2021/10/14 06:59:52;;;;;;;45.83;25.38;;;;;;;;;;5053694;28;20070;-44
2021/10/14 07:02:22;;;;;;;55.28;26.20;;;;;;;;;;5053577;28;20025;-55
2021/10/14 07:04:48;;;;;;;46.20;26.90;;;;;;;;;;5053475;28;20025;-56
2021/10/14 07:07:14;;;;;;;42.03;23.73;;;;;;;;;;5053551;28;20029;-47
2021/10/14 07:09:40;;;;;;;46.75;24.05;;;;;;;;;;5053406;28;20021;-48
2021/10/14 07:12:10;;;;;;;43.80;25.13;;;;;;;;;;5053325;28;20028;-47
2021/10/14 07:14:40;;;;;;;49.75;25.98;;;;;;;;;;5053380;28;20017;-45
2021/10/14 07:17:06;;;;;;;47.22;24.58;;;;;;;;;;5053309;28;20036;-49
2021/10/14 07:19:32;;;;;;;54.60;30.13;;;;;;;;;;5053222;28;20023;-44
2021/10/14 07:21:59;;;;;;;40.47;22.20;;;;;;;;;;5053251;28;20039;-46
2021/10/14 07:24:28;;;;;;;35.15;21.13;;;;;;;;;;5052926;28;20068;-46
2021/10/14 07:26:54;;;;;;;62.40;37.45;;;;;;;;;;5053173;28;20036;-44
2021/10/14 07:29:20;;;;;;;32.20;19.35;;;;;;;;;;5053165;28;20033;-50
2021/10/14 07:31:46;;;;;;;43.92;25.23;;;;;;;;;;5053293;28;20083;-45
2021/10/14 07:34:12;;;;;;;29.35;20.55;;;;;;;;;;5053027;28;20025;-45
2021/10/14 07:36:38;;;;;;;24.55;15.43;;;;;;;;;;5053139;28;20021;-44
2021/10/14 07:39:04;;;;;;;38.63;22.42;;;;;;;;;;5053096;28;20033;-56
2021/10/14 07:41:30;;;;;;;37.08;21.60;;;;;;;;;;5053266;28;20381;-45
2021/10/14 07:43:56;;;;;;;41.28;24.88;;;;;;;;;;5052899;28;20037;-44
2021/10/14 07:46:23;;;;;;;41.92;25.00;;;;;;;;;;5053139;28;20017;-44
2021/10/14 07:48:49;;;;;;;33.25;19.15;;;;;;;;;;5052773;28;20116;-49
2021/10/14 07:51:15;;;;;;;63.15;33.47;;;;;;;;;;5052755;28;20025;-49
2021/10/14 07:53:42;;;;;;;25.83;16.25;;;;;;;;;;5055575;28;20025;-54
2021/10/14 07:56:08;;;;;;;28.20;16.75;;;;;;;;;;5056919;28;20056;-54
2021/10/14 07:58:34;;;;;;;24.73;17.48;;;;;;;;;;5056933;28;20380;-45
2021/10/14 08:01:00;;;;;;;17.00;12.93;;;;;;;;;;5056770;28;20025;-44
2021/10/14 08:03:26;;;;;;;34.97;21.33;;;;;;;;;;5056628;28;20032;-46
2021/10/14 08:05:52;;;;;;;49.80;29.13;;;;;;;;;;5056590;28;20025;-52
2021/10/14 08:08:18;;;;;;;48.78;30.48;;;;;;;;;;5056626;28;20434;-46
2021/10/14 08:10:44;;;;;;;46.63;29.83;;;;;;;;;;5056839;28;20108;-51
2021/10/14 08:13:14;;;;;;;45.63;22.63;;;;;;;;;;5055523;28;20066;-46
2021/10/14 08:15:41;;;;;;;22.75;14.95;;;;;;;;;;5056518;28;20029;-57
2021/10/14 08:18:08;;;;;;;32.65;17.92;;;;;;;;;;5056608;28;20024;-55
2021/10/14 08:20:34;;;;;;;33.53;19.40;;;;;;;;;;5056619;28;20025;-51
2021/10/14 08:23:02;;;;;;;62.75;31.67;;;;;;;;;;5056467;28;20041;-46
2021/10/14 08:25:28;;;;;;;43.13;24.60;;;;;;;;;;5056562;28;20048;-46
2021/10/14 08:27:54;;;;;;;41.22;22.30;;;;;;;;;;5056657;28;20515;-50
2021/10/14 08:30:22;;;;;;;60.45;28.60;;;;;;;;;;5056552;28;20025;-46
2021/10/14 08:32:52;;;;;;;37.63;21.25;;;;;;;;;;5056431;28;20071;-47
2021/10/14 08:35:18;;;;;;;23.67;13.75;;;;;;;;;;5056605;28;20029;-51
2021/10/14 08:37:44;;;;;;;29.73;16.48;;;;;;;;;;5056311;28;20065;-46
2021/10/14 08:40:10;;;;;;;20.60;13.07;;;;;;;;;;5056219;28;20032;-47
2021/10/14 08:42:36;;;;;;;17.90;11.70;;;;;;;;;;5056298;28;20040;-48
2021/10/14 08:45:06;;;;;;;19.70;10.00;;;;;;;;;;5056162;28;20116;-51
2021/10/14 08:47:32;;;;;;;16.80;10.63;;;;;;;;;;5056272;28;20367;-48
2021/10/14 08:50:00;;;;;;;27.20;15.27;;;;;;;;;;5056003;28;20021;-57
2021/10/14 08:52:27;;;;;;;21.77;13.23;;;;;;;;;;5056121;28;20024;-51
2021/10/14 08:54:53;;;;;;;27.35;14.15;;;;;;;;;;5056028;28;20017;-48
2021/10/14 08:57:19;;;;;;;78.32;44.25;;;;;;;;;;5056058;28;20147;-46
2021/10/14 08:59:45;;;;;;;21.73;12.30;;;;;;;;;;5055833;28;20553;-51
2021/10/14 09:02:13;;;;;;;54.08;26.80;;;;;;;;;;5056158;28;20029;-52
2021/10/14 09:04:40;;;;;;;18.48;11.07;;;;;;;;;;5055206;28;20036;-46
2021/10/14 09:07:16;;;;;;;15.32;10.15;;;;;;;;;;5055779;28;20032;-47
2021/10/14 09:09:42;;;;;;;10.77;7.93;;;;;;;;;;5055794;28;20028;-46
2021/10/14 09:12:10;;;;;;;21.02;11.77;;;;;;;;;;5055682;28;20021;-46
2021/10/14 09:14:56;;;;;;;10.73;8.05;;;;;;;;;;5056010;28;20029;-52
2021/10/14 09:17:37;;;;;;;12.07;9.52;;;;;;;;;;5055441;28;20025;-47
2021/10/14 09:20:22;;;;;;;8.30;6.47;;;;;;;;;;5055738;28;20043;-46
2021/10/14 09:23:04;;;;;;;10.43;6.57;;;;;;;;;;5055430;28;20017;-59
2021/10/14 09:25:30;;;;;;;;;;;;;;;;;;5055984;28;20125;-54
2021/10/14 09:28:19;;;;;;;16.50;7.72;;;;;;;;;;5055514;28;19905;-57
2021/10/14 09:31:02;;;;;;;12.32;5.88;;;;;;;;;;5033440;28;20041;-58
2021/10/14 09:33:51;;;;;;;16.30;7.78;;;;;;;;;;5033411;28;20034;-58
2021/10/14 09:36:17;;;;;;;14.45;9.73;;;;;;;;;;5033287;28;20163;-57
2021/10/14 09:38:47;;;;;;;24.52;12.15;;;;;;;;;;5033107;28;20511;-57
2021/10/14 09:41:17;;;;;;;11.85;8.23;;;;;;;;;;5032967;28;20041;-57
2021/10/14 09:43:43;;;;;;;10.63;7.68;;;;;;;;;;5033001;28;20065;-57
2021/10/14 09:46:10;;;;;;;14.32;8.73;;;;;;;;;;5032901;28;20022;-61
2021/10/14 09:48:41;;;;;;;26.65;14.05;;;;;;;;;;5033042;28;20037;-67
2021/10/14 09:51:07;;;;;;;63.15;24.45;;;;;;;;;;5032922;28;20021;-59
2021/10/14 09:53:33;;;;;;;65.22;26.15;;;;;;;;;;5032828;28;20035;-62
2021/10/14 09:56:00;;;;;;;47.45;21.60;;;;;;;;;;5032918;28;20041;-60
2021/10/14 09:58:26;;;;;;;39.60;19.00;;;;;;;;;;5032833;28;20064;-60
2021/10/14 10:00:52;;;;;;;40.92;16.75;;;;;;;;;;5032757;28;20417;-57
2021/10/14 10:03:22;;;;;;;17.38;10.35;;;;;;;;;;5015935;28;20037;-46
2021/10/14 10:05:52;;;;;;;15.85;10.55;;;;;;;;;;5032461;28;20025;-52
2021/10/14 10:08:28;;;;;;;18.55;13.15;;;;;;;;;;5048428;28;20087;-47
2021/10/14 10:10:55;;;;;;;31.73;19.13;;;;;;;;;;5054535;28;20071;-50
2021/10/14 10:13:21;;;;;;;23.30;13.68;;;;;;;;;;5054695;28;20021;-62
2021/10/14 10:15:48;;;;;;;13.43;9.35;;;;;;;;;;5053723;28;20017;-54
2021/10/14 10:18:26;;;;;;;14.43;7.35;;;;;;;;;;5054041;28;20480;-49
2021/10/14 10:20:53;;;;;;;10.32;7.38;;;;;;;;;;5054220;28;20032;-52
2021/10/14 10:23:38;;;;;;;11.05;7.50;;;;;;;;;;5054188;28;20469;-59
2021/10/14 10:26:04;;;;;;;7.28;5.13;;;;;;;;;;5054201;28;20068;-62
2021/10/14 10:28:37;;;;;;;10.40;5.43;;;;;;;;;;5054525;28;20021;-62
2021/10/14 10:31:03;;;;;;;10.90;7.00;;;;;;;;;;5054230;28;20074;-46
2021/10/14 10:34:01;;;;;;;8.93;5.65;;;;;;;;;;5054076;28;20085;-47
2021/10/14 10:36:48;;;;;;;7.20;3.92;;;;;;;;;;5054101;28;20033;-58
2021/10/14 10:39:34;;;;;;;5.13;3.63;;;;;;;;;;5054022;28;20033;-51
2021/10/14 10:42:29;;;;;;;8.35;5.43;;;;;;;;;;5053920;28;20108;-46
2021/10/14 10:45:07;;;;;;;9.65;4.40;;;;;;;;;;5031756;28;20148;-52
2021/10/14 10:47:45;;;;;;;8.98;4.57;;;;;;;;;;5031897;28;20029;-47
2021/10/14 10:50:14;;;;;;;9.63;5.13;;;;;;;;;;5031861;28;20532;-62
2021/10/14 10:52:43;;;;;;;9.63;5.10;;;;;;;;;;5031846;28;20047;-63
2021/10/14 10:55:13;;;;;;;11.32;6.20;;;;;;;;;;5031784;28;20088;-62
2021/10/14 10:57:48;;;;;;;10.98;5.93;;;;;;;;;;5032077;28;20177;-46
2021/10/14 11:00:15;;;;;;;11.68;5.28;;;;;;;;;;5031792;28;20056;-48
2021/10/14 11:02:41;;;;;;;10.73;5.38;;;;;;;;;;5031778;28;20029;-48
2021/10/14 11:05:07;;;;;;;12.20;4.00;;;;;;;;;;5030816;28;20045;-47
2021/10/14 11:07:33;;;;;;;6.82;4.03;;;;;;;;;;5030836;28;20042;-46
2021/10/14 11:09:59;;;;;;;19.00;12.63;;;;;;;;;;5031064;28;20056;-46
2021/10/14 11:12:25;;;;;;;12.93;5.63;;;;;;;;;;5030834;28;20116;-57
2021/10/14 11:14:52;;;;;;;28.77;16.40;;;;;;;;;;5030854;28;20075;-60
2021/10/14 11:17:18;;;;;;;23.48;14.00;;;;;;;;;;5030854;28;20030;-62
2021/10/14 11:19:44;;;;;;;18.48;11.63;;;;;;;;;;5030377;28;20105;-55
2021/10/14 11:22:13;;;;;;;56.85;31.25;;;;;;;;;;5049528;28;20548;-60
2021/10/14 11:24:46;;;;;;;23.30;12.15;;;;;;;;;;5050101;28;20480;-64
2021/10/14 11:27:14;;;;;;;17.30;10.30;;;;;;;;;;5052778;28;20029;-62
2021/10/14 11:29:43;;;;;;;24.98;15.85;;;;;;;;;;5050116;28;20495;-62
2021/10/14 11:32:13;;;;;;;22.10;11.35;;;;;;;;;;5053142;28;20468;-61
2021/10/14 11:34:40;;;;;;;18.83;11.43;;;;;;;;;;5052719;28;20065;-47
2021/10/14 11:37:10;;;;;;;22.25;12.93;;;;;;;;;;5052731;28;20044;-49
2021/10/14 11:39:38;;;;;;;19.00;11.52;;;;;;;;;;5050641;28;20025;-46
2021/10/14 11:42:07;;;;;;;17.58;10.65;;;;;;;;;;5052605;28;20025;-48
2021/10/14 11:44:36;;;;;;;10.45;7.90;;;;;;;;;;5050162;28;20040;-47
2021/10/14 11:47:04;;;;;;;11.52;8.27;;;;;;;;;;5052634;28;20013;-46
2021/10/14 11:49:31;;;;;;;15.40;11.35;;;;;;;;;;5052882;28;20111;-46
2021/10/14 11:52:00;;;;;;;11.82;7.05;;;;;;;;;;5052449;28;20031;-46
2021/10/14 11:54:26;;;;;;;10.20;6.95;;;;;;;;;;5052441;28;20044;-47
2021/10/14 11:56:53;;;;;;;11.30;7.28;;;;;;;;;;5049852;28;20066;-48
2021/10/14 11:59:21;;;;;;;14.57;8.75;;;;;;;;;;5052464;28;20025;-47
2021/10/14 12:01:49;;;;;;;16.33;8.35;;;;;;;;;;5052274;28;20025;-46
2021/10/14 12:04:20;;;;;;;9.38;6.45;;;;;;;;;;5052424;28;20048;-45
2021/10/14 12:06:47;;;;;;;11.75;7.78;;;;;;;;;;5051954;28;20384;-48
2021/10/14 12:09:17;;;;;;;22.88;10.85;;;;;;;;;;5051420;28;20033;-49
2021/10/14 12:11:43;;;;;;;20.92;11.77;;;;;;;;;;5052308;28;20404;-48
2021/10/14 12:14:10;;;;;;;37.22;19.38;;;;;;;;;;5052440;28;20463;-48
2021/10/14 12:16:36;;;;;;;28.15;15.70;;;;;;;;;;5052394;28;20037;-49
2021/10/14 12:19:12;;;;;;;50.42;26.15;;;;;;;;;;5052274;28;20021;-49
2021/10/14 12:21:43;;;;;;;24.27;14.10;;;;;;;;;;5050335;28;20044;-49
2021/10/14 12:24:13;;;;;;;65.10;29.57;;;;;;;;;;5052063;28;20041;-49
2021/10/14 12:26:41;;;;;;;43.63;24.52;;;;;;;;;;5052154;28;20286;-50
2021/10/14 12:29:24;;;;;;;22.13;14.18;;;;;;;;;;5052187;28;20020;-49
2021/10/14 12:32:02;;;;;;;44.83;25.60;;;;;;;;;;5051803;28;20020;-49
2021/10/14 12:34:39;;;;;;;36.10;18.58;;;;;;;;;;5052225;28;20136;-50
2021/10/14 12:37:11;;;;;;;43.60;24.45;;;;;;;;;;5051308;28;20021;-48
2021/10/14 12:39:38;;;;;;;14.52;9.55;;;;;;;;;;5050427;28;20044;-49
2021/10/14 12:42:05;;;;;;;37.25;18.35;;;;;;;;;;5055973;28;20497;-49
2021/10/14 12:44:40;;;;;;;20.00;10.85;;;;;;;;;;5055722;28;20059;-49
2021/10/14 12:47:27;;;;;;;27.67;13.88;;;;;;;;;;5055738;28;20013;-49
2021/10/14 12:50:57;;;;;;;16.13;9.43;;;;;;;;;;5055224;28;20025;-48
2021/10/14 12:53:22;;;;;;;16.17;10.38;;;;;;;;;;5050054;28;20029;-49
2021/10/14 12:55:55;;;;;;;15.85;11.02;;;;;;;;;;5014068;28;20165;-48
2021/10/14 12:58:21;;;;;;;20.35;11.13;;;;;;;;;;5013968;28;20034;-49
2021/10/14 13:00:57;;;;;;;20.88;11.30;;;;;;;;;;5014153;28;20030;-52
2021/10/14 13:03:23;;;;;;;17.63;11.90;;;;;;;;;;5013908;28;20025;-50
2021/10/14 13:05:49;;;;;;;29.75;15.38;;;;;;;;;;5013738;28;20126;-49
2021/10/14 13:08:18;;;;;;;34.33;18.98;;;;;;;;;;5013933;28;20597;-49
2021/10/14 13:10:44;;;;;;;31.02;19.20;;;;;;;;;;5013853;28;20030;-50
2021/10/14 13:13:12;;;;;;;24.27;14.40;;;;;;;;;;5013711;28;20034;-50
2021/10/14 13:15:38;;;;;;;26.83;17.25;;;;;;;;;;5013726;28;20026;-50
2021/10/14 13:18:04;;;;;;;26.58;16.17;;;;;;;;;;5013576;28;20041;-50
2021/10/14 13:20:31;;;;;;;28.30;18.63;;;;;;;;;;5013642;28;20521;-49
2021/10/14 13:23:01;;;;;;;24.92;17.13;;;;;;;;;;5013332;28;20053;-50
2021/10/14 13:25:28;;;;;;;35.35;23.27;;;;;;;;;;5013385;28;20513;-50
2021/10/14 13:27:54;;;;;;;27.35;19.42;;;;;;;;;;5013295;28;20033;-49
2021/10/14 13:30:20;;;;;;;35.75;22.48;;;;;;;;;;5015644;28;20058;-50
2021/10/14 13:32:48;;;;;;;28.17;20.38;;;;;;;;;;5055268;28;20021;-48
2021/10/14 13:35:14;;;;;;;26.52;17.52;;;;;;;;;;5055128;28;20025;-49
2021/10/14 13:37:43;;;;;;;35.28;21.08;;;;;;;;;;5055146;28;20056;-49
2021/10/14 13:40:10;;;;;;;33.60;21.50;;;;;;;;;;5055129;28;20362;-49
2021/10/14 13:42:39;;;;;;;57.33;32.17;;;;;;;;;;5054914;28;20020;-49
2021/10/14 13:45:06;;;;;;;57.95;30.58;;;;;;;;;;5055140;28;20041;-49
2021/10/14 13:47:32;;;;;;;60.40;34.72;;;;;;;;;;5054892;28;20369;-48
2021/10/14 13:49:58;;;;;;;53.05;34.30;;;;;;;;;;5054913;28;20424;-48
2021/10/14 13:52:24;;;;;;;38.72;22.73;;;;;;;;;;5054969;28;20028;-50
2021/10/14 13:54:50;;;;;;;40.08;23.95;;;;;;;;;;5053577;28;20040;-49
2021/10/14 13:57:16;;;;;;;85.25;41.85;;;;;;;;;;5055124;28;20032;-50
2021/10/14 13:59:42;;;;;;;67.90;31.15;;;;;;;;;;5054849;28;20025;-50
2021/10/14 14:02:09;;;;;;;77.70;38.20;;;;;;;;;;5054980;28;20025;-51
2021/10/14 14:04:37;;;;;;;57.58;30.00;;;;;;;;;;5054558;28;20052;-49
2021/10/14 14:07:03;;;;;;;55.22;28.15;;;;;;;;;;5053544;28;20045;-49
2021/10/14 14:09:32;;;;;;;67.72;30.70;;;;;;;;;;5054702;28;20083;-49
2021/10/14 14:11:58;;;;;;;65.18;31.88;;;;;;;;;;5054639;28;20024;-50
2021/10/14 14:14:24;;;;;;;38.03;21.90;;;;;;;;;;5054803;28;20035;-50
2021/10/14 14:16:50;;;;;;;39.72;23.52;;;;;;;;;;5054497;28;20472;-50
2021/10/14 14:19:16;;;;;;;39.10;23.35;;;;;;;;;;5053213;28;20037;-50
2021/10/14 14:21:42;;;;;;;31.13;19.48;;;;;;;;;;5054214;28;20151;-50
2021/10/14 14:24:08;;;;;;;40.13;23.33;;;;;;;;;;5053965;28;20094;-50
2021/10/14 14:26:34;;;;;;;39.33;22.75;;;;;;;;;;5054800;28;20021;-50
2021/10/14 14:29:00;;;;;;;40.40;23.40;;;;;;;;;;5054235;28;20524;-50